createdAt,value
2022-08-11T00:01:59.102Z,54.04
2022-08-11T00:04:27.778Z,52.91
2022-08-11T00:06:55.314Z,53.67
2022-08-11T00:09:24.310Z,54.36
2022-08-11T00:11:58.469Z,54.72
2022-08-11T00:14:37.530Z,54.74
2022-08-11T00:17:15.599Z,54.17
2022-08-11T00:20:14.629Z,54.64
2022-08-11T00:22:35.157Z,54.36
2022-08-11T00:25:10.724Z,54.56
2022-08-11T00:27:40.176Z,55.01
2022-08-11T00:30:11.981Z,54.23
2022-08-11T00:32:40.879Z,54.57
2022-08-11T00:35:51.290Z,55.57
2022-08-11T00:37:57.428Z,55.34
2022-08-11T00:40:44.095Z,55.30
2022-08-11T00:43:29.224Z,55.43
2022-08-11T00:46:14.550Z,54.74
2022-08-11T00:48:58.551Z,55.14
2022-08-11T00:52:02.205Z,56.08
2022-08-11T00:54:39.040Z,55.40
2022-08-11T00:57:39.031Z,56.18
2022-08-11T01:00:23.361Z,56.07
2022-08-11T01:03:18.077Z,70.36
2022-08-11T01:06:14.921Z,69.69
2022-08-11T01:09:09.678Z,71.36
2022-08-11T01:12:15.899Z,72.37
2022-08-11T01:15:25.369Z,73.21
2022-08-11T01:18:29.645Z,71.32
2022-08-11T01:21:43.596Z,71.75
2022-08-11T01:24:54.780Z,68.57
2022-08-11T01:27:37.160Z,58.18
2022-08-11T01:30:18.923Z,60.83
2022-08-11T01:33:24.727Z,56.19
2022-08-11T01:36:12.455Z,59.66
2022-08-11T01:39:13.224Z,58.94
2022-08-11T01:42:12.816Z,59.62
2022-08-11T01:45:04.043Z,58.99
2022-08-11T01:47:52.438Z,60.83
2022-08-11T01:50:46.478Z,58.95
2022-08-11T01:53:18.474Z,57.45
2022-08-11T01:56:20.046Z,57.57
2022-08-11T01:59:10.529Z,56.73
2022-08-11T02:01:53.591Z,56.63
2022-08-11T02:04:38.526Z,58.43
2022-08-11T02:07:17.225Z,56.22
2022-08-11T02:09:49.826Z,54.83
2022-08-11T02:12:51.203Z,56.64
2022-08-11T02:15:36.959Z,53.97
2022-08-11T02:18:10.405Z,56.96
2022-08-11T02:21:14.187Z,56.39
2022-08-11T02:24:05.070Z,57.78
2022-08-11T02:26:41.587Z,56.66
2022-08-11T02:29:17.825Z,58.63
2022-08-11T02:32:28.678Z,57.21
2022-08-11T02:35:36.745Z,56.22
2022-08-11T02:38:24.938Z,56.50
2022-08-11T02:41:40.639Z,55.68
2022-08-11T02:44:16.270Z,54.99
2022-08-11T02:46:55.235Z,56.23
2022-08-11T02:50:06.399Z,54.71
2022-08-11T02:53:13.810Z,55.61
2022-08-11T02:56:14.223Z,58.67
2022-08-11T02:59:12.510Z,56.65
2022-08-11T03:01:50.337Z,54.30
2022-08-11T03:04:37.569Z,53.93
2022-08-11T03:07:28.764Z,55.00
2022-08-11T03:10:00.273Z,53.61
2022-08-11T03:12:55.660Z,53.56
2022-08-11T03:15:50.727Z,52.72
2022-08-11T03:18:31.717Z,53.42
2022-08-11T03:21:20.878Z,53.36
2022-08-11T03:23:59.080Z,53.00
2022-08-11T03:27:07.522Z,52.84
2022-08-11T03:29:53.549Z,52.96
2022-08-11T03:32:42.408Z,52.67
2022-08-11T03:35:11.498Z,52.59
2022-08-11T03:38:02.688Z,52.63
2022-08-11T03:42:03.453Z,52.56
2022-08-11T03:44:24.159Z,51.61
2022-08-11T03:47:01.716Z,51.62
2022-08-11T03:49:39.172Z,52.79
2022-08-11T03:52:40.782Z,52.04
2022-08-11T03:55:21.981Z,52.50
2022-08-11T03:58:00.594Z,52.83
2022-08-11T04:00:46.742Z,51.87
2022-08-11T04:03:36.579Z,51.90
2022-08-11T04:06:15.242Z,54.45
2022-08-11T04:09:11.998Z,52.10
2022-08-11T04:11:58.417Z,51.91
2022-08-11T04:15:01.775Z,52.58
2022-08-11T04:17:37.089Z,52.98
2022-08-11T04:20:25.680Z,52.70
2022-08-11T04:23:03.275Z,53.88
2022-08-11T04:25:58.550Z,54.88
2022-08-11T04:28:55.621Z,55.17
2022-08-11T04:31:51.342Z,54.99
2022-08-11T04:34:37.170Z,55.28
2022-08-11T04:37:31.506Z,56.41
2022-08-11T04:40:28.861Z,57.01
2022-08-11T04:43:23.614Z,57.43
2022-08-11T04:46:19.870Z,56.86
2022-08-11T04:49:39.294Z,57.43
2022-08-11T04:52:47.062Z,56.98
2022-08-11T04:55:53.527Z,57.79
2022-08-11T04:58:46.051Z,57.38
2022-08-11T05:01:43.418Z,56.43
2022-08-11T05:04:28.817Z,55.58
2022-08-11T05:07:13.306Z,53.52
2022-08-11T05:10:17.372Z,53.38
2022-08-11T05:12:47.115Z,54.08
2022-08-11T05:15:43.137Z,52.38
2022-08-11T05:18:35.459Z,52.11
2022-08-11T05:21:27.990Z,51.32
2022-08-11T05:24:32.132Z,50.50
2022-08-11T05:27:21.746Z,49.25
2022-08-11T05:30:24.087Z,48.99
2022-08-11T05:33:16.568Z,47.62
2022-08-11T05:36:00.380Z,47.75
2022-08-11T05:38:51.389Z,47.30
2022-08-11T05:41:40.999Z,46.33
2022-08-11T05:44:28.518Z,45.98
2022-08-11T05:47:14.294Z,45.72
2022-08-11T05:50:00.916Z,45.28
2022-08-11T05:52:49.291Z,44.24
2022-08-11T05:56:02.304Z,44.43
2022-08-11T05:58:42.801Z,43.35
2022-08-11T06:01:11.850Z,43.47
2022-08-11T06:03:58.749Z,43.95
2022-08-11T06:06:27.346Z,42.57
2022-08-11T06:08:57.096Z,42.50
2022-08-11T06:11:42.971Z,42.37
2022-08-11T06:14:12.375Z,42.31
2022-08-11T06:16:41.819Z,41.64
2022-08-11T06:19:09.402Z,42.00
2022-08-11T06:21:36.672Z,41.17
2022-08-11T06:24:14.041Z,40.86
2022-08-11T06:27:12.437Z,40.58
2022-08-11T06:29:54.762Z,40.44
2022-08-11T06:32:29.505Z,40.09
2022-08-11T06:35:10.077Z,38.56
2022-08-11T06:37:46.880Z,39.17
2022-08-11T06:40:36.244Z,38.43
2022-08-11T06:43:23.235Z,39.24
2022-08-11T06:46:04.447Z,38.83
2022-08-11T06:48:33.348Z,38.13
2022-08-11T06:51:12.595Z,37.32
2022-08-11T06:53:49.484Z,37.58
2022-08-11T06:57:06.355Z,37.33
2022-08-11T06:59:58.042Z,36.93
2022-08-11T07:02:33.946Z,38.08
2022-08-11T07:05:01.319Z,36.28
2022-08-11T07:08:34.296Z,36.63
2022-08-11T07:11:38.195Z,36.13
2022-08-11T07:14:25.583Z,36.72
2022-08-11T07:16:53.347Z,36.01
2022-08-11T07:19:47.068Z,35.72
2022-08-11T07:22:34.052Z,35.93
2022-08-11T07:25:36.209Z,36.32
2022-08-11T07:28:22.563Z,35.85
2022-08-11T07:30:58.502Z,36.56
2022-08-11T07:34:07.713Z,35.34
2022-08-11T07:36:28.642Z,35.02
2022-08-11T07:38:57.547Z,35.07
2022-08-11T07:41:26.053Z,35.60
2022-08-11T07:44:09.266Z,34.77
2022-08-11T07:47:07.293Z,34.15
2022-08-11T07:49:57.153Z,35.03
2022-08-11T07:52:29.534Z,34.50
2022-08-11T07:54:59.732Z,34.74
2022-08-11T07:58:14.790Z,35.14
2022-08-11T08:00:59.223Z,35.01
2022-08-11T08:03:54.746Z,34.38
2022-08-11T08:06:41.606Z,33.59
2022-08-11T08:09:27.785Z,33.46
2022-08-11T08:12:14.651Z,33.03
2022-08-11T08:15:01.251Z,34.76
2022-08-11T08:18:20.852Z,33.27
2022-08-11T08:20:51.960Z,34.43
2022-08-11T08:23:33.558Z,33.26
2022-08-11T08:26:03.495Z,32.17
2022-08-11T08:28:32.611Z,33.40
2022-08-11T08:31:00.266Z,33.65
2022-08-11T08:33:30.963Z,33.72
2022-08-11T08:36:12.762Z,33.05
2022-08-11T08:38:48.391Z,33.44
2022-08-11T08:41:19.934Z,32.24
2022-08-11T08:43:51.465Z,33.21
2022-08-11T08:46:26.044Z,31.83
2022-08-11T08:48:53.718Z,32.60
2022-08-11T08:51:58.707Z,31.97
2022-08-11T08:54:25.691Z,31.56
2022-08-11T08:56:55.168Z,32.18
2022-08-11T08:59:24.108Z,30.31
2022-08-11T09:01:59.802Z,29.96
2022-08-11T09:04:27.424Z,30.22
2022-08-11T09:06:56.810Z,29.39
2022-08-11T09:09:24.724Z,29.30
2022-08-11T09:11:55.044Z,31.21
2022-08-11T09:14:53.077Z,29.57
2022-08-11T09:17:21.639Z,31.62
2022-08-11T09:19:56.727Z,28.16
2022-08-11T09:22:45.763Z,28.20
2022-08-11T09:25:32.749Z,28.15
2022-08-11T09:27:59.782Z,27.89
2022-08-11T09:30:28.151Z,29.51
2022-08-11T09:32:58.148Z,27.41
2022-08-11T09:35:29.312Z,28.17
2022-08-11T09:38:16.095Z,27.83
2022-08-11T09:40:45.215Z,28.30
2022-08-11T09:43:39.049Z,29.35
2022-08-11T09:46:07.211Z,28.49
2022-08-11T09:48:40.670Z,29.36
2022-08-11T09:51:08.686Z,27.69
2022-08-11T09:53:41.495Z,27.96
2022-08-11T09:56:38.141Z,25.95
2022-08-11T09:59:05.956Z,27.93
2022-08-11T10:01:37.755Z,26.58
2022-08-11T10:04:11.630Z,28.07
2022-08-11T10:06:58.197Z,27.17
2022-08-11T10:09:25.709Z,26.11
2022-08-11T10:11:57.988Z,25.16
2022-08-11T10:14:45.548Z,25.19
2022-08-11T10:17:14.877Z,24.78
2022-08-11T10:19:43.494Z,24.98
2022-08-11T10:22:28.597Z,25.98
2022-08-11T10:25:19.650Z,23.47
2022-08-11T10:28:32.686Z,23.56
2022-08-11T10:30:56.910Z,23.55
2022-08-11T10:33:59.570Z,23.12
2022-08-11T10:36:35.308Z,22.60
2022-08-11T10:39:04.411Z,22.71
2022-08-11T10:42:06.198Z,21.24
2022-08-11T10:44:40.189Z,20.81
2022-08-11T10:47:26.434Z,20.65
2022-08-11T10:50:12.942Z,21.59
2022-08-11T10:52:59.371Z,22.32
2022-08-11T10:55:45.376Z,21.43
2022-08-11T10:58:31.918Z,20.79
2022-08-11T11:01:00.742Z,20.94
2022-08-11T11:03:30.925Z,22.29
2022-08-11T11:06:28.870Z,25.55
2022-08-11T11:09:04.469Z,22.37
2022-08-11T11:11:55.384Z,21.16
2022-08-11T11:14:46.025Z,21.84
2022-08-11T11:17:26.300Z,20.53
2022-08-11T11:19:58.378Z,20.39
2022-08-11T11:22:38.359Z,20.66
2022-08-11T11:25:23.119Z,20.94
2022-08-11T11:28:34.667Z,21.21
2022-08-11T11:31:27.526Z,20.77
2022-08-11T11:34:15.841Z,20.19
2022-08-11T11:36:50.628Z,20.08
2022-08-11T11:39:23.173Z,18.89
2022-08-11T11:42:02.037Z,19.85
2022-08-11T11:44:29.910Z,19.99
2022-08-11T11:46:57.394Z,19.65
2022-08-11T11:49:28.382Z,19.26
2022-08-11T11:51:57.144Z,18.67
2022-08-11T11:54:26.631Z,18.06
2022-08-11T11:56:55.527Z,18.00
2022-08-11T11:59:44.413Z,18.39
2022-08-11T12:02:13.194Z,19.94
2022-08-11T12:04:45.770Z,19.27
2022-08-11T12:07:31.148Z,18.92
2022-08-11T12:09:58.894Z,20.79
2022-08-11T12:12:44.693Z,20.85
2022-08-11T12:15:12.535Z,21.48
2022-08-11T12:17:39.727Z,19.37
2022-08-11T12:20:31.722Z,19.34
2022-08-11T12:23:15.165Z,20.55
2022-08-11T12:26:26.514Z,19.57
2022-08-11T12:28:50.538Z,19.45
2022-08-11T12:31:17.553Z,20.07
2022-08-11T12:33:44.577Z,20.92
2022-08-11T12:36:15.793Z,20.35
2022-08-11T12:38:51.292Z,19.67
2022-08-11T12:41:39.659Z,20.46
2022-08-11T12:44:29.991Z,20.29
2022-08-11T12:47:01.978Z,21.40
2022-08-11T12:49:50.946Z,21.97
2022-08-11T12:52:24.033Z,20.54
2022-08-11T12:54:52.208Z,18.95
2022-08-11T12:58:04.387Z,18.15
2022-08-11T13:00:51.532Z,18.40
2022-08-11T13:03:40.943Z,17.92
2022-08-11T13:06:08.644Z,19.15
2022-08-11T13:08:37.894Z,20.07
2022-08-11T13:11:23.535Z,19.45
2022-08-11T13:13:57.053Z,19.56
2022-08-11T13:16:28.391Z,19.07
2022-08-11T13:18:57.434Z,19.21
2022-08-11T13:21:24.220Z,19.07
2022-08-11T13:24:01.919Z,19.91
2022-08-11T13:26:47.340Z,21.68
2022-08-11T13:29:28.738Z,19.53
2022-08-11T13:32:02.181Z,20.16
2022-08-11T13:34:31.464Z,20.00
2022-08-11T13:37:00.982Z,19.28
2022-08-11T13:39:30.566Z,20.07
2022-08-11T13:41:59.550Z,20.31
2022-08-11T13:44:28.742Z,21.36
2022-08-11T13:46:59.429Z,21.34
2022-08-11T13:49:26.386Z,21.67
2022-08-11T13:51:55.265Z,20.71
2022-08-11T13:54:25.395Z,21.40
2022-08-11T13:56:56.096Z,20.78
2022-08-11T13:59:24.079Z,20.96
2022-08-11T14:02:22.153Z,21.04
2022-08-11T14:04:58.451Z,23.71
2022-08-11T14:07:34.470Z,21.60
2022-08-11T14:10:01.839Z,22.45
2022-08-11T14:12:51.342Z,21.03
2022-08-11T14:15:25.207Z,20.95
2022-08-11T14:18:07.287Z,21.01
2022-08-11T14:20:59.542Z,21.48
2022-08-11T14:23:37.559Z,20.53
2022-08-11T14:26:23.670Z,21.19
2022-08-11T14:28:55.472Z,21.49
2022-08-11T14:31:26.982Z,21.50
2022-08-11T14:34:02.368Z,21.48
2022-08-11T14:36:32.854Z,21.89
2022-08-11T14:39:02.331Z,21.25
2022-08-11T14:42:10.276Z,21.34
2022-08-11T14:44:57.155Z,21.56
2022-08-11T14:47:25.883Z,22.38
2022-08-11T14:50:09.713Z,21.95
2022-08-11T14:52:41.174Z,21.67
2022-08-11T14:55:27.274Z,21.26
2022-08-11T14:57:57.101Z,22.29
2022-08-11T15:00:25.000Z,22.03
2022-08-11T15:03:10.712Z,22.34
2022-08-11T15:05:58.644Z,21.97
2022-08-11T15:08:47.670Z,21.79
2022-08-11T15:11:35.320Z,21.46
2022-08-11T15:14:03.877Z,21.17
2022-08-11T15:16:49.456Z,22.30
2022-08-11T15:19:16.814Z,22.06
2022-08-11T15:22:01.918Z,21.50
2022-08-11T15:24:30.855Z,22.66
2022-08-11T15:27:19.310Z,22.75
2022-08-11T15:30:06.286Z,22.26
2022-08-11T15:32:53.021Z,23.41
2022-08-11T15:35:39.315Z,22.45
2022-08-11T15:38:12.075Z,21.93
2022-08-11T15:40:59.373Z,21.92
2022-08-11T15:44:01.020Z,22.03
2022-08-11T15:46:49.555Z,21.64
2022-08-11T15:50:11.213Z,21.75
2022-08-11T15:52:19.554Z,21.37
2022-08-11T15:54:48.532Z,22.35
2022-08-11T15:57:39.994Z,22.11
2022-08-11T16:00:26.273Z,22.03
2022-08-11T16:02:55.002Z,22.41
2022-08-11T16:05:45.008Z,22.44
2022-08-11T16:08:13.283Z,22.15
2022-08-11T16:10:44.822Z,22.04
2022-08-11T16:13:13.137Z,24.91
2022-08-11T16:16:10.381Z,22.91
2022-08-11T16:18:44.075Z,22.22
2022-08-11T16:21:33.605Z,23.25
2022-08-11T16:24:01.996Z,23.93
2022-08-11T16:27:11.493Z,23.76
2022-08-11T16:29:18.114Z,23.89
2022-08-11T16:32:06.886Z,23.91
2022-08-11T16:34:53.606Z,23.80
2022-08-11T16:37:42.219Z,23.65
2022-08-11T16:40:09.928Z,24.79
2022-08-11T16:43:00.189Z,23.43
2022-08-11T16:45:57.743Z,23.88
2022-08-11T16:48:35.755Z,24.12
2022-08-11T16:51:08.741Z,24.38
2022-08-11T16:53:45.977Z,24.63
2022-08-11T16:56:28.054Z,23.80
2022-08-11T16:59:15.929Z,23.50
2022-08-11T17:01:53.197Z,24.00
2022-08-11T17:05:02.208Z,23.66
2022-08-11T17:07:48.625Z,24.03
2022-08-11T17:10:55.425Z,25.31
2022-08-11T17:13:29.496Z,24.43
2022-08-11T17:16:13.196Z,24.64
2022-08-11T17:18:54.506Z,24.46
2022-08-11T17:21:23.822Z,25.17
2022-08-11T17:23:55.056Z,24.52
2022-08-11T17:26:58.769Z,24.24
2022-08-11T17:29:54.790Z,24.76
2022-08-11T17:32:55.816Z,24.62
2022-08-11T17:35:31.168Z,24.75
2022-08-11T17:38:08.538Z,24.82
2022-08-11T17:41:00.454Z,24.49
2022-08-11T17:43:47.626Z,24.72
2022-08-11T17:46:34.601Z,24.97
2022-08-11T17:49:02.773Z,25.43
2022-08-11T17:51:48.992Z,24.99
2022-08-11T17:54:34.863Z,25.67
2022-08-11T17:57:22.509Z,25.64
2022-08-11T17:59:56.364Z,25.09
2022-08-11T18:02:47.239Z,25.73
2022-08-11T18:05:15.837Z,26.04
2022-08-11T18:08:02.180Z,25.18
2022-08-11T18:10:49.659Z,25.77
2022-08-11T18:13:40.234Z,25.96
2022-08-11T18:16:26.627Z,26.44
2022-08-11T18:19:12.061Z,26.20
2022-08-11T18:22:11.005Z,26.14
2022-08-11T18:25:05.591Z,26.83
2022-08-11T18:27:52.996Z,27.04
2022-08-11T18:30:38.509Z,26.81
2022-08-11T18:36:38.335Z,27.20
2022-08-11T18:39:27.953Z,27.64
2022-08-11T18:42:19.553Z,27.62
2022-08-11T18:45:18.745Z,28.32
2022-08-11T18:48:07.279Z,27.96
2022-08-11T18:51:30.958Z,28.42
2022-08-11T18:54:05.628Z,28.22
2022-08-11T18:56:51.585Z,28.62
2022-08-11T18:59:42.454Z,28.79
2022-08-11T19:02:29.709Z,28.23
2022-08-11T19:05:17.423Z,28.83
2022-08-11T19:08:07.587Z,28.94
2022-08-11T19:10:53.430Z,28.75
2022-08-11T19:13:43.587Z,29.27
2022-08-11T19:16:30.081Z,29.64
2022-08-11T19:19:17.233Z,29.35
2022-08-11T19:22:03.606Z,30.00
2022-08-11T19:24:50.586Z,30.51
2022-08-11T19:27:38.097Z,30.05
2022-08-11T19:30:23.678Z,30.40
2022-08-11T19:33:10.094Z,30.93
2022-08-11T19:35:56.679Z,31.42
2022-08-11T19:38:42.064Z,31.42
2022-08-11T19:41:57.062Z,31.44
2022-08-11T19:44:34.587Z,32.16
2022-08-11T19:47:21.299Z,31.63
2022-08-11T19:50:08.152Z,32.05
2022-08-11T19:52:55.062Z,31.57
2022-08-11T19:55:40.881Z,32.28
2022-08-11T19:58:26.354Z,32.38
2022-08-11T20:01:11.842Z,32.12
2022-08-11T20:03:56.698Z,32.08
2022-08-11T20:06:42.682Z,32.54
2022-08-11T20:10:05.477Z,32.39
2022-08-11T20:12:36.910Z,33.41
2022-08-11T20:15:23.824Z,33.00
2022-08-11T20:18:09.326Z,33.62
2022-08-11T20:20:54.603Z,33.48
2022-08-11T20:23:40.500Z,33.49
2022-08-11T20:26:31.366Z,33.87
2022-08-11T20:29:18.433Z,34.08
2022-08-11T20:32:06.492Z,33.95
2022-08-11T20:34:56.740Z,34.26
2022-08-11T20:37:47.630Z,34.46
2022-08-11T20:40:38.924Z,34.41
2022-08-11T20:44:08.175Z,34.00
2022-08-11T20:46:33.815Z,35.05
2022-08-11T20:49:21.372Z,34.58
2022-08-11T20:52:06.841Z,34.40
2022-08-11T20:54:53.309Z,34.90
2022-08-11T20:57:54.596Z,34.77
2022-08-11T21:00:44.497Z,35.13
2022-08-11T21:03:36.479Z,34.96
2022-08-11T21:06:33.194Z,35.47
2022-08-11T21:09:23.805Z,35.85
2022-08-11T21:12:13.491Z,36.12
2022-08-11T21:14:59.429Z,35.77
2022-08-11T21:18:06.422Z,35.92
2022-08-11T21:20:58.372Z,36.55
2022-08-11T21:23:46.647Z,36.26
2022-08-11T21:26:36.203Z,36.29
2022-08-11T21:29:24.929Z,36.00
2022-08-11T21:32:13.144Z,36.37
2022-08-11T21:35:00.451Z,36.28
2022-08-11T21:37:50.238Z,37.01
2022-08-11T21:40:39.700Z,36.75
2022-08-11T21:43:26.591Z,37.23
2022-08-11T21:46:13.090Z,37.26
2022-08-11T21:48:59.989Z,38.10
2022-08-11T21:51:44.913Z,37.90
2022-08-11T21:54:30.293Z,37.95
2022-08-11T21:57:16.690Z,38.30
2022-08-11T22:00:16.655Z,38.13
2022-08-11T22:03:04.126Z,38.73
2022-08-11T22:05:51.433Z,38.45
2022-08-11T22:08:37.628Z,39.70
2022-08-11T22:11:31.737Z,40.35
2022-08-11T22:14:21.750Z,42.32
2022-08-11T22:17:06.718Z,41.79
2022-08-11T22:19:54.473Z,42.59
2022-08-11T22:22:51.914Z,39.57
2022-08-11T22:25:44.131Z,39.60
2022-08-11T22:28:37.048Z,39.92
2022-08-11T22:31:24.473Z,40.15
2022-08-11T22:34:09.815Z,39.99
2022-08-11T22:36:55.192Z,39.65
2022-08-11T22:39:40.984Z,40.97
2022-08-11T22:42:33.697Z,42.23
2022-08-11T22:45:19.644Z,40.62
2022-08-11T22:48:06.511Z,41.31
2022-08-11T22:50:52.848Z,40.93
2022-08-11T22:53:58.393Z,42.64
2022-08-11T22:56:46.158Z,43.81
2022-08-11T22:59:33.288Z,44.44
2022-08-11T23:02:19.114Z,44.13
2022-08-11T23:05:06.050Z,42.34
2022-08-11T23:07:52.893Z,44.30
2022-08-11T23:10:39.876Z,44.71
2022-08-11T23:13:26.655Z,45.48
2022-08-11T23:16:14.191Z,46.21
2022-08-11T23:19:00.126Z,46.31
2022-08-11T23:21:46.973Z,45.95
2022-08-11T23:24:32.936Z,46.22
2022-08-11T23:27:20.776Z,46.68
2022-08-11T23:30:06.793Z,46.69
2022-08-11T23:32:52.232Z,47.51
2022-08-11T23:35:53.606Z,47.06
2022-08-11T23:38:42.125Z,47.59
2022-08-11T23:41:27.490Z,46.71
2022-08-11T23:44:12.829Z,45.21
2022-08-11T23:46:58.611Z,44.78
2022-08-11T23:49:44.961Z,46.61
2022-08-11T23:52:30.984Z,46.33
2022-08-11T23:55:16.951Z,45.11
2022-08-11T23:58:02.824Z,45.15
